sensor_id;sensor_type;location;lat;lon;timestamp;pressure;altitude;pressure_sealevel;temperature;humidity
77041;BME280;65974;42.664;23.264;2023-03-19T00:01:20;94902.78;;;-0.08;71.29
77041;BME280;65974;42.664;23.264;2023-03-19T00:03:45;94908.19;;;-0.04;71.39
77041;BME280;65974;42.664;23.264;2023-03-19T00:06:12;94904.63;;;-0.08;71.30
77041;BME280;65974;42.664;23.264;2023-03-19T00:08:37;94902.78;;;-0.08;71.88
77041;BME280;65974;42.664;23.264;2023-03-19T00:11:09;94910.22;;;-0.01;71.13
77041;BME280;65974;42.664;23.264;2023-03-19T00:13:54;94903.38;;;-0.11;69.90
77041;BME280;65974;42.664;23.264;2023-03-19T00:16:20;94915.75;;;-0.25;70.46
77041;BME280;65974;42.664;23.264;2023-03-19T00:18:46;94905.41;;;-0.30;70.68
77041;BME280;65974;42.664;23.264;2023-03-19T00:21:12;94905.72;;;-0.31;70.48
77041;BME280;65974;42.664;23.264;2023-03-19T00:23:38;94898.34;;;-0.29;70.49
77041;BME280;65974;42.664;23.264;2023-03-19T00:26:04;94897.28;;;-0.28;70.43
77041;BME280;65974;42.664;23.264;2023-03-19T00:28:29;94890.22;;;-0.19;69.83
77041;BME280;65974;42.664;23.264;2023-03-19T00:30:55;94889.97;;;-0.18;70.24
77041;BME280;65974;42.664;23.264;2023-03-19T00:33:21;94889.91;;;-0.26;70.72
77041;BME280;65974;42.664;23.264;2023-03-19T00:35:46;94887.88;;;-0.29;70.67
77041;BME280;65974;42.664;23.264;2023-03-19T00:38:12;94890.69;;;-0.26;70.48
77041;BME280;65974;42.664;23.264;2023-03-19T00:40:38;94884.06;;;-0.23;69.88
77041;BME280;65974;42.664;23.264;2023-03-19T00:43:03;94873.16;;;-0.17;70.23
77041;BME280;65974;42.664;23.264;2023-03-19T00:45:29;94875.50;;;-0.37;71.45
77041;BME280;65974;42.664;23.264;2023-03-19T00:47:55;94876.44;;;-0.33;71.20
77041;BME280;65974;42.664;23.264;2023-03-19T00:50:22;94874.47;;;-0.28;70.89
77041;BME280;65974;42.664;23.264;2023-03-19T00:52:49;94868.13;;;-0.13;70.41
77041;BME280;65974;42.664;23.264;2023-03-19T00:55:15;94866.09;;;-0.16;70.80
77041;BME280;65974;42.664;23.264;2023-03-19T00:57:40;94862.38;;;-0.24;69.65
77041;BME280;65974;42.664;23.264;2023-03-19T01:00:06;94865.88;;;-0.28;69.98
77041;BME280;65974;42.664;23.264;2023-03-19T01:02:33;94865.88;;;-0.28;69.63
77041;BME280;65974;42.664;23.264;2023-03-19T01:04:58;94846.19;;;-0.26;69.46
77041;BME280;65974;42.664;23.264;2023-03-19T01:07:24;94859.56;;;-0.27;69.98
77041;BME280;65974;42.664;23.264;2023-03-19T01:09:49;94846.66;;;-0.24;70.15
77041;BME280;65974;42.664;23.264;2023-03-19T01:12:15;94854.31;;;-0.27;70.21
77041;BME280;65974;42.664;23.264;2023-03-19T01:14:40;94851.53;;;-0.31;70.24
77041;BME280;65974;42.664;23.264;2023-03-19T01:17:06;94845.22;;;-0.30;70.92
77041;BME280;65974;42.664;23.264;2023-03-19T01:19:31;94850.69;;;-0.18;69.91
77041;BME280;65974;42.664;23.264;2023-03-19T01:21:56;94850.09;;;-0.15;69.70
77041;BME280;65974;42.664;23.264;2023-03-19T01:24:22;94849.66;;;-0.08;69.11
77041;BME280;65974;42.664;23.264;2023-03-19T01:26:48;94840.44;;;-0.06;69.11
77041;BME280;65974;42.664;23.264;2023-03-19T01:29:13;94847.72;;;-0.03;68.56
77041;BME280;65974;42.664;23.264;2023-03-19T01:31:39;94842.94;;;-0.01;69.02
77041;BME280;65974;42.664;23.264;2023-03-19T01:34:05;94838.47;;;0.00;68.49
77041;BME280;65974;42.664;23.264;2023-03-19T01:36:30;94841.56;;;0.02;68.60
77041;BME280;65974;42.664;23.264;2023-03-19T01:38:56;94850.91;;;-0.06;68.48
77041;BME280;65974;42.664;23.264;2023-03-19T01:41:22;94847.19;;;-0.13;69.83
77041;BME280;65974;42.664;23.264;2023-03-19T01:43:48;94849.91;;;-0.18;70.61
77041;BME280;65974;42.664;23.264;2023-03-19T01:46:27;94849.56;;;-0.25;70.48
77041;BME280;65974;42.664;23.264;2023-03-19T01:51:44;94855.03;;;-0.35;71.29
77041;BME280;65974;42.664;23.264;2023-03-19T01:54:15;94853.63;;;-0.41;71.57
77041;BME280;65974;42.664;23.264;2023-03-19T01:56:42;94851.19;;;-0.38;71.08
77041;BME280;65974;42.664;23.264;2023-03-19T02:01:41;94852.91;;;-0.33;70.76
77041;BME280;65974;42.664;23.264;2023-03-19T02:04:08;94856.66;;;-0.48;71.31
77041;BME280;65974;42.664;23.264;2023-03-19T02:06:34;94855.28;;;-0.45;71.48
77041;BME280;65974;42.664;23.264;2023-03-19T02:09:00;94852.38;;;-0.44;70.93
77041;BME280;65974;42.664;23.264;2023-03-19T02:11:27;94852.13;;;-0.34;70.07
77041;BME280;65974;42.664;23.264;2023-03-19T02:13:52;94858.50;;;-0.26;70.53
77041;BME280;65974;42.664;23.264;2023-03-19T02:16:18;94850.91;;;-0.36;70.88
77041;BME280;65974;42.664;23.264;2023-03-19T02:18:44;94843.31;;;-0.38;70.71
77041;BME280;65974;42.664;23.264;2023-03-19T02:21:12;94841.06;;;-0.31;69.76
77041;BME280;65974;42.664;23.264;2023-03-19T02:26:13;94842.31;;;-0.50;71.43
77041;BME280;65974;42.664;23.264;2023-03-19T02:28:41;94848.97;;;-0.44;71.28
77041;BME280;65974;42.664;23.264;2023-03-19T02:31:09;94852.06;;;-0.42;71.40
77041;BME280;65974;42.664;23.264;2023-03-19T02:33:35;94847.56;;;-0.50;70.47
77041;BME280;65974;42.664;23.264;2023-03-19T02:36:02;94857.53;;;-0.52;69.75
77041;BME280;65974;42.664;23.264;2023-03-19T02:38:30;94859.09;;;-0.51;69.97
77041;BME280;65974;42.664;23.264;2023-03-19T02:41:00;94857.53;;;-0.52;70.09
77041;BME280;65974;42.664;23.264;2023-03-19T02:43:26;94858.69;;;-0.45;69.85
77041;BME280;65974;42.664;23.264;2023-03-19T02:45:53;94858.63;;;-0.53;70.76
77041;BME280;65974;42.664;23.264;2023-03-19T02:48:19;94864.75;;;-0.58;71.36
77041;BME280;65974;42.664;23.264;2023-03-19T02:50:44;94865.38;;;-0.52;70.96
77041;BME280;65974;42.664;23.264;2023-03-19T02:53:10;94858.50;;;-0.48;71.54
77041;BME280;65974;42.664;23.264;2023-03-19T02:55:35;94862.88;;;-0.57;71.82
77041;BME280;65974;42.664;23.264;2023-03-19T02:58:01;94863.66;;;-0.57;72.30
77041;BME280;65974;42.664;23.264;2023-03-19T03:00:26;94862.06;;;-0.66;72.76
77041;BME280;65974;42.664;23.264;2023-03-19T03:02:53;94866.22;;;-0.65;72.58
77041;BME280;65974;42.664;23.264;2023-03-19T03:05:20;94861.44;;;-0.63;72.17
77041;BME280;65974;42.664;23.264;2023-03-19T03:07:45;94867.97;;;-0.74;72.89
77041;BME280;65974;42.664;23.264;2023-03-19T03:10:11;94877.06;;;-0.72;72.30
77041;BME280;65974;42.664;23.264;2023-03-19T03:12:37;94873.09;;;-0.69;72.38
77041;BME280;65974;42.664;23.264;2023-03-19T03:15:04;94874.25;;;-0.62;72.08
77041;BME280;65974;42.664;23.264;2023-03-19T03:17:30;94876.25;;;-0.59;72.18
77041;BME280;65974;42.664;23.264;2023-03-19T03:19:56;94879.28;;;-0.65;72.34
77041;BME280;65974;42.664;23.264;2023-03-19T03:22:21;94878.81;;;-0.67;72.19
77041;BME280;65974;42.664;23.264;2023-03-19T03:24:47;94872.72;;;-0.77;72.01
77041;BME280;65974;42.664;23.264;2023-03-19T03:27:12;94882.59;;;-0.73;72.41
77041;BME280;65974;42.664;23.264;2023-03-19T03:29:38;94876.81;;;-0.70;71.73
77041;BME280;65974;42.664;23.264;2023-03-19T03:32:03;94875.63;;;-0.64;70.72
77041;BME280;65974;42.664;23.264;2023-03-19T03:34:30;94872.69;;;-0.63;70.64
77041;BME280;65974;42.664;23.264;2023-03-19T03:36:56;94877.28;;;-0.68;71.29
77041;BME280;65974;42.664;23.264;2023-03-19T03:39:21;94873.28;;;-0.66;71.14
77041;BME280;65974;42.664;23.264;2023-03-19T03:41:47;94881.78;;;-0.60;71.36
77041;BME280;65974;42.664;23.264;2023-03-19T03:44:13;94885.13;;;-0.68;71.90
77041;BME280;65974;42.664;23.264;2023-03-19T03:46:39;94878.34;;;-0.69;72.13
77041;BME280;65974;42.664;23.264;2023-03-19T03:49:05;94886.84;;;-0.64;72.05
77041;BME280;65974;42.664;23.264;2023-03-19T03:51:30;94892.13;;;-0.77;72.72
77041;BME280;65974;42.664;23.264;2023-03-19T03:53:57;94884.66;;;-0.84;72.57
77041;BME280;65974;42.664;23.264;2023-03-19T03:56:22;94891.56;;;-0.88;72.88
77041;BME280;65974;42.664;23.264;2023-03-19T03:58:47;94889.81;;;-0.93;72.91
77041;BME280;65974;42.664;23.264;2023-03-19T04:01:15;94889.91;;;-0.98;73.48
77041;BME280;65974;42.664;23.264;2023-03-19T04:03:42;94889.91;;;-0.98;73.76
77041;BME280;65974;42.664;23.264;2023-03-19T04:06:11;94891.47;;;-0.97;73.63
77041;BME280;65974;42.664;23.264;2023-03-19T04:08:38;94888.69;;;-1.00;74.42
77041;BME280;65974;42.664;23.264;2023-03-19T04:11:07;94885.78;;;-0.99;73.98
77041;BME280;65974;42.664;23.264;2023-03-19T04:13:33;94884.50;;;-1.01;74.01
77041;BME280;65974;42.664;23.264;2023-03-19T04:16:03;94885.09;;;-1.04;73.77
77041;BME280;65974;42.664;23.264;2023-03-19T04:18:28;94881.59;;;-1.00;73.78
77041;BME280;65974;42.664;23.264;2023-03-19T04:20:54;94880.72;;;-0.95;73.52
77041;BME280;65974;42.664;23.264;2023-03-19T04:23:19;94879.94;;;-0.96;73.84
77041;BME280;65974;42.664;23.264;2023-03-19T04:25:45;94883.47;;;-1.00;73.80
77041;BME280;65974;42.664;23.264;2023-03-19T04:28:10;94881.13;;;-1.02;73.71
77041;BME280;65974;42.664;23.264;2023-03-19T04:30:36;94887.91;;;-1.01;74.12
77041;BME280;65974;42.664;23.264;2023-03-19T04:33:02;94894.09;;;-1.10;74.33
77041;BME280;65974;42.664;23.264;2023-03-19T04:35:29;94885.69;;;-1.21;74.51
77041;BME280;65974;42.664;23.264;2023-03-19T04:37:55;94889.09;;;-1.20;75.00
77041;BME280;65974;42.664;23.264;2023-03-19T04:40:20;94897.59;;;-1.15;74.75
77041;BME280;65974;42.664;23.264;2023-03-19T04:42:46;94896.06;;;-1.16;74.51
77041;BME280;65974;42.664;23.264;2023-03-19T04:45:11;94894.00;;;-1.19;75.02
77041;BME280;65974;42.664;23.264;2023-03-19T04:47:36;94893.63;;;-1.12;75.03
77041;BME280;65974;42.664;23.264;2023-03-19T04:50:02;94900.88;;;-1.09;74.98
77041;BME280;65974;42.664;23.264;2023-03-19T04:52:28;94898.75;;;-1.07;74.81
77041;BME280;65974;42.664;23.264;2023-03-19T04:54:54;94904.16;;;-1.04;75.25
77041;BME280;65974;42.664;23.264;2023-03-19T04:57:19;94893.31;;;-0.97;74.48
77041;BME280;65974;42.664;23.264;2023-03-19T04:59:45;94894.00;;;-0.92;74.45
77041;BME280;65974;42.664;23.264;2023-03-19T05:02:11;94890.78;;;-0.89;74.70
77041;BME280;65974;42.664;23.264;2023-03-19T05:04:37;94897.09;;;-0.90;74.81
77041;BME280;65974;42.664;23.264;2023-03-19T05:07:02;94897.25;;;-0.86;74.40
77041;BME280;65974;42.664;23.264;2023-03-19T05:09:28;94896.56;;;-0.78;74.20
77041;BME280;65974;42.664;23.264;2023-03-19T05:11:55;94906.84;;;-0.82;74.59
77041;BME280;65974;42.664;23.264;2023-03-19T05:14:21;94901.88;;;-0.83;74.65
77041;BME280;65974;42.664;23.264;2023-03-19T05:16:47;94908.38;;;-0.81;73.76
77041;BME280;65974;42.664;23.264;2023-03-19T05:19:12;94900.59;;;-0.72;73.44
77041;BME280;65974;42.664;23.264;2023-03-19T05:21:38;94898.53;;;-0.61;73.48
77041;BME280;65974;42.664;23.264;2023-03-19T05:24:05;94896.34;;;-0.68;73.50
77041;BME280;65974;42.664;23.264;2023-03-19T05:26:30;94897.13;;;-0.67;73.73
77041;BME280;65974;42.664;23.264;2023-03-19T05:28:56;94904.06;;;-0.63;73.87
77041;BME280;65974;42.664;23.264;2023-03-19T05:31:22;94896.88;;;-0.57;73.63
77041;BME280;65974;42.664;23.264;2023-03-19T05:33:47;94903.66;;;-0.56;73.01
77041;BME280;65974;42.664;23.264;2023-03-19T05:36:13;94898.97;;;-0.46;72.58
77041;BME280;65974;42.664;23.264;2023-03-19T05:38:39;94892.44;;;-0.35;72.41
77041;BME280;65974;42.664;23.264;2023-03-19T05:41:05;94892.03;;;-0.28;72.23
77041;BME280;65974;42.664;23.264;2023-03-19T05:43:31;94898.38;;;-0.21;72.34
77041;BME280;65974;42.664;23.264;2023-03-19T05:45:56;94887.63;;;-0.19;72.01
77041;BME280;65974;42.664;23.264;2023-03-19T05:48:23;94901.53;;;-0.10;72.35
77041;BME280;65974;42.664;23.264;2023-03-19T05:50:48;94902.84;;;0.01;72.29
77041;BME280;65974;42.664;23.264;2023-03-19T05:53:14;94912.34;;;0.19;72.01
77041;BME280;65974;42.664;23.264;2023-03-19T05:55:39;94909.16;;;0.31;71.84
77041;BME280;65974;42.664;23.264;2023-03-19T05:58:05;94909.81;;;0.36;71.23
77041;BME280;65974;42.664;23.264;2023-03-19T06:00:32;94910.00;;;0.40;71.11
77041;BME280;65974;42.664;23.264;2023-03-19T06:02:59;94909.88;;;0.53;70.62
77041;BME280;65974;42.664;23.264;2023-03-19T06:05:24;94905.78;;;0.69;69.92
77041;BME280;65974;42.664;23.264;2023-03-19T06:07:50;94904.59;;;0.84;69.32
77041;BME280;65974;42.664;23.264;2023-03-19T06:10:15;94900.75;;;0.90;68.57
77041;BME280;65974;42.664;23.264;2023-03-19T06:12:41;94911.72;;;0.92;68.27
77041;BME280;65974;42.664;23.264;2023-03-19T06:15:07;94909.09;;;0.92;68.60
77041;BME280;65974;42.664;23.264;2023-03-19T06:17:33;94913.28;;;1.02;68.32
77041;BME280;65974;42.664;23.264;2023-03-19T06:19:59;94910.22;;;1.08;68.04
77041;BME280;65974;42.664;23.264;2023-03-19T06:22:24;94914.69;;;1.08;67.14
77041;BME280;65974;42.664;23.264;2023-03-19T06:24:51;94920.25;;;1.15;66.09
77041;BME280;65974;42.664;23.264;2023-03-19T06:27:16;94914.06;;;1.19;65.31
77041;BME280;65974;42.664;23.264;2023-03-19T06:29:42;94916.09;;;1.14;64.85
77041;BME280;65974;42.664;23.264;2023-03-19T06:32:09;94917.47;;;1.20;64.94
77041;BME280;65974;42.664;23.264;2023-03-19T06:34:34;94927.38;;;1.23;64.41
77041;BME280;65974;42.664;23.264;2023-03-19T06:37:00;94922.59;;;1.33;64.19
77041;BME280;65974;42.664;23.264;2023-03-19T06:39:26;94923.69;;;1.41;63.50
77041;BME280;65974;42.664;23.264;2023-03-19T06:41:52;94921.25;;;1.53;63.52
77041;BME280;65974;42.664;23.264;2023-03-19T06:44:18;94930.31;;;1.55;63.04
77041;BME280;65974;42.664;23.264;2023-03-19T06:46:43;94925.25;;;1.59;62.37
77041;BME280;65974;42.664;23.264;2023-03-19T06:49:09;94934.06;;;1.80;62.67
77041;BME280;65974;42.664;23.264;2023-03-19T06:51:35;94939.31;;;1.97;62.19
77041;BME280;65974;42.664;23.264;2023-03-19T06:54:01;94940.34;;;2.13;61.26
77041;BME280;65974;42.664;23.264;2023-03-19T06:56:26;94939.75;;;2.16;60.74
77041;BME280;65974;42.664;23.264;2023-03-19T06:58:53;94942.81;;;2.18;61.05
77041;BME280;65974;42.664;23.264;2023-03-19T07:01:18;94941.56;;;2.33;60.86
77041;BME280;65974;42.664;23.264;2023-03-19T07:03:44;94944.63;;;2.44;60.76
77041;BME280;65974;42.664;23.264;2023-03-19T07:06:09;94939.84;;;2.37;60.27
77041;BME280;65974;42.664;23.264;2023-03-19T07:08:35;94946.88;;;2.62;60.30
77041;BME280;65974;42.664;23.264;2023-03-19T07:11:05;94943.16;;;2.72;59.50
77041;BME280;65974;42.664;23.264;2023-03-19T07:13:32;94943.94;;;2.72;58.87
77041;BME280;65974;42.664;23.264;2023-03-19T07:15:58;94935.91;;;3.06;58.41
77041;BME280;65974;42.664;23.264;2023-03-19T07:18:24;94941.63;;;3.08;58.61
77041;BME280;65974;42.664;23.264;2023-03-19T07:20:51;94941.38;;;3.22;58.05
77041;BME280;65974;42.664;23.264;2023-03-19T07:23:18;94934.97;;;3.02;57.88
77041;BME280;65974;42.664;23.264;2023-03-19T07:25:43;94935.69;;;3.11;57.93
77041;BME280;65974;42.664;23.264;2023-03-19T07:28:09;94930.44;;;3.11;57.45
77041;BME280;65974;42.664;23.264;2023-03-19T07:30:34;94927.72;;;3.29;57.63
77041;BME280;65974;42.664;23.264;2023-03-19T07:33:00;94936.16;;;3.43;57.24
77041;BME280;65974;42.664;23.264;2023-03-19T07:35:25;94924.78;;;3.71;56.85
77041;BME280;65974;42.664;23.264;2023-03-19T07:37:51;94930.69;;;3.89;55.97
77041;BME280;65974;42.664;23.264;2023-03-19T07:40:17;94923.13;;;3.87;55.22
77041;BME280;65974;42.664;23.264;2023-03-19T07:42:42;94932.16;;;3.99;55.12
77041;BME280;65974;42.664;23.264;2023-03-19T07:45:08;94922.72;;;3.98;55.07
77041;BME280;65974;42.664;23.264;2023-03-19T07:47:33;94930.09;;;4.04;55.11
77041;BME280;65974;42.664;23.264;2023-03-19T07:49:59;94928.56;;;4.03;55.24
77041;BME280;65974;42.664;23.264;2023-03-19T07:52:25;94934.69;;;4.28;54.96
77041;BME280;65974;42.664;23.264;2023-03-19T07:54:51;94937.00;;;4.29;53.97
77041;BME280;65974;42.664;23.264;2023-03-19T07:57:17;94930.97;;;4.29;54.50
77041;BME280;65974;42.664;23.264;2023-03-19T07:59:43;94931.41;;;4.31;54.85
77041;BME280;65974;42.664;23.264;2023-03-19T08:02:12;94932.91;;;4.52;55.08
77041;BME280;65974;42.664;23.264;2023-03-19T08:04:38;94924.25;;;4.64;55.39
77041;BME280;65974;42.664;23.264;2023-03-19T08:07:03;94929.91;;;4.54;55.64
77041;BME280;65974;42.664;23.264;2023-03-19T08:09:29;94925.53;;;4.58;55.15
77041;BME280;65974;42.664;23.264;2023-03-19T08:11:54;94926.31;;;4.58;55.12
77041;BME280;65974;42.664;23.264;2023-03-19T08:14:20;94926.97;;;4.55;55.22
77041;BME280;65974;42.664;23.264;2023-03-19T08:16:47;94926.63;;;4.45;54.98
77041;BME280;65974;42.664;23.264;2023-03-19T08:19:13;94928.81;;;4.43;55.46
77041;BME280;65974;42.664;23.264;2023-03-19T08:21:39;94934.03;;;4.88;55.14
77041;BME280;65974;42.664;23.264;2023-03-19T08:24:06;94933.72;;;5.01;54.39
77041;BME280;65974;42.664;23.264;2023-03-19T08:26:32;94932.16;;;4.88;54.81
77041;BME280;65974;42.664;23.264;2023-03-19T08:28:58;94933.50;;;4.94;54.85
77041;BME280;65974;42.664;23.264;2023-03-19T08:31:24;94933.06;;;5.04;54.20
77041;BME280;65974;42.664;23.264;2023-03-19T08:33:49;94943.41;;;4.97;54.09
77041;BME280;65974;42.664;23.264;2023-03-19T08:36:15;94937.03;;;5.10;54.99
77041;BME280;65974;42.664;23.264;2023-03-19T08:38:41;94932.09;;;5.21;53.52
77041;BME280;65974;42.664;23.264;2023-03-19T08:41:07;94928.41;;;5.49;53.49
77041;BME280;65974;42.664;23.264;2023-03-19T08:43:34;94925.53;;;5.67;52.71
77041;BME280;65974;42.664;23.264;2023-03-19T08:46:02;94921.25;;;5.62;52.49
77041;BME280;65974;42.664;23.264;2023-03-19T08:48:28;94922.88;;;5.67;51.60
77041;BME280;65974;42.664;23.264;2023-03-19T08:50:55;94928.59;;;5.69;53.70
77041;BME280;65974;42.664;23.264;2023-03-19T08:53:22;94913.03;;;5.79;52.60
77041;BME280;65974;42.664;23.264;2023-03-19T08:55:58;94913.38;;;5.78;51.88
77041;BME280;65974;42.664;23.264;2023-03-19T08:58:25;94906.16;;;5.75;52.43
77041;BME280;65974;42.664;23.264;2023-03-19T09:00:51;94921.75;;;5.80;51.52
77041;BME280;65974;42.664;23.264;2023-03-19T09:03:18;94909.41;;;5.96;50.64
77041;BME280;65974;42.664;23.264;2023-03-19T09:05:44;94914.25;;;5.82;50.77
77041;BME280;65974;42.664;23.264;2023-03-19T09:08:10;94898.91;;;5.99;50.54
77041;BME280;65974;42.664;23.264;2023-03-19T09:10:37;94903.63;;;6.34;50.61
77041;BME280;65974;42.664;23.264;2023-03-19T09:13:03;94899.56;;;6.24;49.68
77041;BME280;65974;42.664;23.264;2023-03-19T09:15:28;94899.41;;;6.17;49.77
77041;BME280;65974;42.664;23.264;2023-03-19T09:17:53;94891.00;;;6.43;50.12
77041;BME280;65974;42.664;23.264;2023-03-19T09:20:19;94891.00;;;6.58;48.89
77041;BME280;65974;42.664;23.264;2023-03-19T09:22:45;94901.44;;;6.51;49.18
77041;BME280;65974;42.664;23.264;2023-03-19T09:25:11;94900.06;;;6.57;48.90
77041;BME280;65974;42.664;23.264;2023-03-19T09:27:36;94885.13;;;6.80;48.49
77041;BME280;65974;42.664;23.264;2023-03-19T09:30:03;94885.03;;;6.92;48.17
77041;BME280;65974;42.664;23.264;2023-03-19T09:32:29;94884.03;;;6.97;48.05
77041;BME280;65974;42.664;23.264;2023-03-19T09:34:55;94881.78;;;7.15;48.04
77041;BME280;65974;42.664;23.264;2023-03-19T09:37:21;94881.28;;;7.44;47.08
77041;BME280;65974;42.664;23.264;2023-03-19T09:39:46;94873.66;;;7.58;46.56
77041;BME280;65974;42.664;23.264;2023-03-19T09:44:59;94872.53;;;8.16;45.50
77041;BME280;65974;42.664;23.264;2023-03-19T09:47:34;94874.28;;;8.47;44.50
77041;BME280;65974;42.664;23.264;2023-03-19T09:50:18;94870.84;;;8.69;43.98
77041;BME280;65974;42.664;23.264;2023-03-19T09:52:52;94867.97;;;8.78;43.93
77041;BME280;65974;42.664;23.264;2023-03-19T09:57:49;94867.09;;;9.19;43.18
77041;BME280;65974;42.664;23.264;2023-03-19T10:02:42;94864.03;;;9.43;42.31
77041;BME280;65974;42.664;23.264;2023-03-19T10:05:29;94862.09;;;9.40;42.15
77041;BME280;65974;42.664;23.264;2023-03-19T10:15:59;94849.44;;;10.23;40.67
77041;BME280;65974;42.664;23.264;2023-03-19T10:18:31;94850.44;;;10.44;40.24
77041;BME280;65974;42.664;23.264;2023-03-19T10:21:06;94842.47;;;10.48;40.04
77041;BME280;65974;42.664;23.264;2023-03-19T10:26:38;94836.06;;;10.52;39.49
77041;BME280;65974;42.664;23.264;2023-03-19T10:29:09;94831.22;;;10.65;39.18
77041;BME280;65974;42.664;23.264;2023-03-19T10:31:55;94818.28;;;10.67;39.46
77041;BME280;65974;42.664;23.264;2023-03-19T10:34:33;94808.31;;;11.04;39.86
77041;BME280;65974;42.664;23.264;2023-03-19T10:39:38;94805.91;;;11.46;38.25
77041;BME280;65974;42.664;23.264;2023-03-19T10:47:42;94789.69;;;11.69;36.82
77041;BME280;65974;42.664;23.264;2023-03-19T10:50:20;94785.16;;;11.87;36.69
77041;BME280;65974;42.664;23.264;2023-03-19T10:52:55;94777.56;;;12.00;37.24
77041;BME280;65974;42.664;23.264;2023-03-19T10:55:24;94776.44;;;12.08;36.46
77041;BME280;65974;42.664;23.264;2023-03-19T10:57:56;94766.16;;;12.20;35.92
77041;BME280;65974;42.664;23.264;2023-03-19T11:00:28;94768.09;;;12.20;35.74
77041;BME280;65974;42.664;23.264;2023-03-19T11:02:57;94766.84;;;11.93;36.01
77041;BME280;65974;42.664;23.264;2023-03-19T11:05:28;94752.44;;;12.22;36.26
77041;BME280;65974;42.664;23.264;2023-03-19T11:10:21;94746.72;;;12.34;35.99
77041;BME280;65974;42.664;23.264;2023-03-19T11:13:05;94746.72;;;12.59;35.18
77041;BME280;65974;42.664;23.264;2023-03-19T11:15:40;94739.88;;;12.75;35.39
77041;BME280;65974;42.664;23.264;2023-03-19T11:18:19;94742.50;;;12.93;35.57
77041;BME280;65974;42.664;23.264;2023-03-19T11:20:59;94739.47;;;13.08;34.18
77041;BME280;65974;42.664;23.264;2023-03-19T11:23:30;94732.56;;;13.25;34.22
77041;BME280;65974;42.664;23.264;2023-03-19T11:26:02;94730.31;;;13.13;34.93
77041;BME280;65974;42.664;23.264;2023-03-19T11:28:28;94724.97;;;12.85;34.96
77041;BME280;65974;42.664;23.264;2023-03-19T11:31:00;94729.53;;;13.19;34.95
77041;BME280;65974;42.664;23.264;2023-03-19T11:43:57;94704.63;;;13.33;34.04
77041;BME280;65974;42.664;23.264;2023-03-19T11:57:28;94685.78;;;13.65;34.63
77041;BME280;65974;42.664;23.264;2023-03-19T12:08:39;94672.41;;;14.23;33.23
77041;BME280;65974;42.664;23.264;2023-03-19T12:11:35;94670.03;;;14.36;32.83
77041;BME280;65974;42.664;23.264;2023-03-19T12:25:27;94648.88;;;14.48;32.68
77041;BME280;65974;42.664;23.264;2023-03-19T12:35:33;94645.94;;;15.10;31.29
77041;BME280;65974;42.664;23.264;2023-03-19T12:38:15;94637.19;;;15.06;31.71
77041;BME280;65974;42.664;23.264;2023-03-19T12:40:46;94640.31;;;15.01;32.07
77041;BME280;65974;42.664;23.264;2023-03-19T12:43:24;94638.47;;;14.95;31.95
77041;BME280;65974;42.664;23.264;2023-03-19T12:45:55;94638.50;;;14.91;31.97
77041;BME280;65974;42.664;23.264;2023-03-19T12:48:30;94635.31;;;14.66;32.17
77041;BME280;65974;42.664;23.264;2023-03-19T12:51:04;94628.63;;;14.44;32.83
77041;BME280;65974;42.664;23.264;2023-03-19T12:53:46;94632.56;;;14.25;32.93
77041;BME280;65974;42.664;23.264;2023-03-19T12:56:24;94634.88;;;14.23;33.06
77041;BME280;65974;42.664;23.264;2023-03-19T13:01:48;94622.25;;;14.31;32.87
77041;BME280;65974;42.664;23.264;2023-03-19T13:04:25;94621.03;;;14.39;33.79
77041;BME280;65974;42.664;23.264;2023-03-19T13:08:01;94628.75;;;14.23;32.98
77041;BME280;65974;42.664;23.264;2023-03-19T13:10:17;94622.88;;;13.94;33.07
77041;BME280;65974;42.664;23.264;2023-03-19T13:12:44;94619.84;;;13.88;33.93
77041;BME280;65974;42.664;23.264;2023-03-19T13:23:10;94602.66;;;14.37;33.55
77041;BME280;65974;42.664;23.264;2023-03-19T13:25:40;94597.16;;;14.51;33.72
77041;BME280;65974;42.664;23.264;2023-03-19T13:28:11;94593.91;;;14.70;33.26
77041;BME280;65974;42.664;23.264;2023-03-19T13:30:37;94595.69;;;14.84;32.39
77041;BME280;65974;42.664;23.264;2023-03-19T13:33:06;94588.03;;;14.83;32.65
77041;BME280;65974;42.664;23.264;2023-03-19T13:35:39;94590.91;;;14.99;32.70
77041;BME280;65974;42.664;23.264;2023-03-19T13:38:19;94591.72;;;14.96;32.40
77041;BME280;65974;42.664;23.264;2023-03-19T13:40:56;94586.06;;;14.87;32.57
77041;BME280;65974;42.664;23.264;2023-03-19T13:45:52;94599.06;;;14.54;33.23
77041;BME280;65974;42.664;23.264;2023-03-19T13:51:00;94591.19;;;14.37;32.97
77041;BME280;65974;42.664;23.264;2023-03-19T13:56:20;94580.63;;;14.16;33.70
77041;BME280;65974;42.664;23.264;2023-03-19T13:58:50;94577.84;;;14.26;33.60
77041;BME280;65974;42.664;23.264;2023-03-19T14:03:54;94582.91;;;14.17;33.86
77041;BME280;65974;42.664;23.264;2023-03-19T14:06:37;94581.78;;;14.15;33.77
77041;BME280;65974;42.664;23.264;2023-03-19T14:09:28;94569.84;;;14.23;33.33
77041;BME280;65974;42.664;23.264;2023-03-19T14:11:53;94566.78;;;14.24;33.51
77041;BME280;65974;42.664;23.264;2023-03-19T14:14:21;94562.84;;;14.36;33.70
77041;BME280;65974;42.664;23.264;2023-03-19T14:16:48;94571.63;;;14.40;33.38
77041;BME280;65974;42.664;23.264;2023-03-19T14:19:18;94560.53;;;14.41;33.41
77041;BME280;65974;42.664;23.264;2023-03-19T14:22:00;94556.66;;;14.42;33.00
77041;BME280;65974;42.664;23.264;2023-03-19T14:27:17;94557.38;;;14.46;32.98
77041;BME280;65974;42.664;23.264;2023-03-19T14:29:46;94553.59;;;14.44;33.11
77041;BME280;65974;42.664;23.264;2023-03-19T14:32:17;94556.66;;;14.46;33.17
77041;BME280;65974;42.664;23.264;2023-03-19T14:34:45;94552.84;;;14.43;33.21
77041;BME280;65974;42.664;23.264;2023-03-19T14:37:24;94555.16;;;14.41;33.44
77041;BME280;65974;42.664;23.264;2023-03-19T14:40:08;94559.69;;;14.48;33.59
77041;BME280;65974;42.664;23.264;2023-03-19T14:42:54;94554.28;;;14.51;33.38
77041;BME280;65974;42.664;23.264;2023-03-19T14:53:54;94546.06;;;14.32;33.87
77041;BME280;65974;42.664;23.264;2023-03-19T14:56:32;94547.53;;;14.36;33.52